createdAt,value
2019-02-21T00:01:32.996Z,99348.38
2019-02-21T00:03:59.511Z,99347.19
2019-02-21T00:06:26.043Z,99349.44
2019-02-21T00:08:52.592Z,99337.09
2019-02-21T00:11:19.128Z,99346.54
2019-02-21T00:13:45.657Z,99349.81
2019-02-21T00:16:12.486Z,99351.02
2019-02-21T00:18:39.471Z,99355.91
2019-02-21T00:21:06.089Z,99350.91
2019-02-21T00:23:32.615Z,99350.14
2019-02-21T00:25:59.147Z,99359.35
2019-02-21T00:28:26.253Z,99360.73
2019-02-21T00:30:53.060Z,99359.08
2019-02-21T00:33:19.595Z,99363.52
2019-02-21T00:35:46.125Z,99362.77
2019-02-21T00:38:12.988Z,99364.95
2019-02-21T00:40:39.500Z,99371.95
2019-02-21T00:43:05.954Z,99370.64
2019-02-21T00:45:32.618Z,99370.69
2019-02-21T00:47:59.163Z,99363.36
2019-02-21T00:50:25.636Z,99372.50
2019-02-21T00:52:52.178Z,99370.34
2019-02-21T00:55:18.727Z,99371.70
2019-02-21T00:57:45.506Z,99376.42
2019-02-21T01:00:12.963Z,99369.09
2019-02-21T01:02:39.494Z,99365.19
2019-02-21T01:05:06.065Z,99356.95
2019-02-21T01:07:32.882Z,99360.50
2019-02-21T01:09:59.394Z,99362.25
2019-02-21T01:12:25.960Z,99362.30
2019-02-21T01:14:52.888Z,99365.27
2019-02-21T01:17:19.464Z,99366.13
2019-02-21T01:19:45.997Z,99364.38
2019-02-21T01:22:13.009Z,99359.55
2019-02-21T01:24:40.216Z,99367.37
2019-02-21T01:27:06.715Z,99356.08
2019-02-21T01:29:33.507Z,99358.69
2019-02-21T01:32:00.170Z,99349.55
2019-02-21T01:34:26.627Z,99360.86
2019-02-21T01:36:53.148Z,99355.63
2019-02-21T01:39:19.788Z,99360.42
2019-02-21T01:41:46.375Z,99353.97
2019-02-21T01:44:12.860Z,99357.14
2019-02-21T01:46:39.410Z,99360.64
2019-02-21T01:49:05.940Z,99356.71
2019-02-21T01:51:32.484Z,99338.89
2019-02-21T01:53:58.996Z,99342.80
2019-02-21T01:56:25.678Z,99335.85
2019-02-21T01:58:52.133Z,99340.14
2019-02-21T02:01:18.922Z,99335.36
2019-02-21T02:03:45.431Z,99342.36
2019-02-21T02:06:12.021Z,99341.44
2019-02-21T02:08:38.802Z,99347.51
2019-02-21T02:11:05.376Z,99344.05
2019-02-21T02:13:31.963Z,99339.70
2019-02-21T02:15:58.526Z,99337.11
2019-02-21T02:18:25.742Z,99334.98
2019-02-21T02:20:55.357Z,99334.60
2019-02-21T02:23:27.461Z,99331.99
2019-02-21T02:25:54.045Z,99330.73
2019-02-21T02:28:22.763Z,99330.69
2019-02-21T02:30:51.512Z,99334.22
2019-02-21T02:33:18.136Z,99330.37
2019-02-21T02:35:45.171Z,99328.63
2019-02-21T02:38:17.803Z,99326.88
2019-02-21T02:40:47.480Z,99318.62
2019-02-21T02:43:15.476Z,99320.80
2019-02-21T02:45:58.072Z,99323.84
2019-02-21T02:48:26.037Z,99328.14
2019-02-21T02:50:52.620Z,99322.10
2019-02-21T02:53:19.130Z,99314.71
2019-02-21T02:55:46.727Z,99316.91
2019-02-21T02:58:13.221Z,99312.55
2019-02-21T03:00:39.762Z,99317.31
2019-02-21T03:03:06.250Z,99319.94
2019-02-21T03:05:32.858Z,99326.02
2019-02-21T03:07:59.381Z,99320.80
2019-02-21T03:10:26.173Z,99319.49
2019-02-21T03:12:52.665Z,99323.86
2019-02-21T03:15:19.208Z,99323.41
2019-02-21T03:17:45.757Z,99326.88
2019-02-21T03:20:15.330Z,99329.02
2019-02-21T03:22:43.447Z,99331.63
2019-02-21T03:25:10.058Z,99335.08
2019-02-21T03:27:37.405Z,99339.88
2019-02-21T03:30:05.134Z,99337.27
2019-02-21T03:32:33.459Z,99341.69
2019-02-21T03:35:00.986Z,99345.64
2019-02-21T03:37:29.156Z,99353.00
2019-02-21T03:39:56.564Z,99358.70
2019-02-21T03:42:23.383Z,99360.89
2019-02-21T03:44:49.989Z,99356.55
2019-02-21T03:47:17.627Z,99352.67
2019-02-21T03:49:49.189Z,99351.32
2019-02-21T03:52:16.923Z,99357.41
2019-02-21T03:54:43.511Z,99362.19
2019-02-21T03:57:12.037Z,99364.37
2019-02-21T03:59:38.562Z,99360.89
2019-02-21T04:02:05.934Z,99358.27
2019-02-21T04:04:38.498Z,99365.22
2019-02-21T04:07:05.134Z,99360.41
2019-02-21T04:09:42.900Z,99356.53
2019-02-21T04:12:09.620Z,99363.94
2019-02-21T04:14:36.460Z,99360.03
2019-02-21T04:17:03.034Z,99352.64
2019-02-21T04:19:35.546Z,99353.94
2019-02-21T04:22:02.167Z,99348.27
2019-02-21T04:24:33.379Z,99351.75
2019-02-21T04:26:59.253Z,99348.70
2019-02-21T04:29:31.965Z,99348.65
2019-02-21T04:31:58.479Z,99350.38
2019-02-21T04:34:25.028Z,99355.53
2019-02-21T04:36:51.677Z,99349.38
2019-02-21T04:39:18.617Z,99350.15
2019-02-21T04:41:45.137Z,99351.02
2019-02-21T04:44:11.735Z,99354.53
2019-02-21T04:46:38.523Z,99356.23
2019-02-21T04:49:05.027Z,99351.88
2019-02-21T04:51:31.554Z,99356.59
2019-02-21T04:53:58.045Z,99348.75
2019-02-21T04:56:36.428Z,99353.04
2019-02-21T04:59:03.295Z,99357.81
2019-02-21T05:01:29.844Z,99356.05
2019-02-21T05:03:56.901Z,99352.50
2019-02-21T05:06:23.361Z,99354.31
2019-02-21T05:08:49.840Z,99349.11
2019-02-21T05:11:18.666Z,99349.55
2019-02-21T05:13:47.884Z,99353.02
2019-02-21T05:16:14.398Z,99351.65
2019-02-21T05:18:40.978Z,99349.91
2019-02-21T05:21:07.756Z,99342.05
2019-02-21T05:23:36.671Z,99352.87
2019-02-21T05:26:02.636Z,99347.27
2019-02-21T05:28:30.694Z,99342.56
2019-02-21T05:31:01.765Z,99345.55
2019-02-21T05:33:45.250Z,99346.84
2019-02-21T05:36:32.135Z,99343.75
2019-02-21T05:39:26.730Z,99336.77
2019-02-21T05:42:15.784Z,99328.51
2019-02-21T05:45:01.409Z,99336.26
2019-02-21T05:47:39.168Z,99340.09
2019-02-21T05:50:23.029Z,99342.66
2019-02-21T05:53:14.577Z,99347.39
2019-02-21T05:55:52.990Z,99348.75
2019-02-21T05:58:28.449Z,99351.83
2019-02-21T06:01:01.104Z,99351.38
2019-02-21T06:03:37.526Z,99350.48
2019-02-21T06:06:21.969Z,99350.92
2019-02-21T06:09:06.479Z,99356.27
2019-02-21T06:11:43.421Z,99352.73
2019-02-21T06:14:33.637Z,99355.34
2019-02-21T06:17:14.210Z,99353.18
2019-02-21T06:20:03.371Z,99358.42
2019-02-21T06:22:56.726Z,99355.00
2019-02-21T06:25:33.110Z,99361.55
2019-02-21T06:28:13.156Z,99358.23
2019-02-21T06:30:47.599Z,99356.13
2019-02-21T06:33:16.339Z,99362.25
2019-02-21T06:35:44.807Z,99371.49
2019-02-21T06:38:12.429Z,99369.37
2019-02-21T06:40:41.142Z,99372.42
2019-02-21T06:43:07.731Z,99376.39
2019-02-21T06:45:34.774Z,99374.67
2019-02-21T06:48:04.633Z,99382.56
2019-02-21T06:50:32.153Z,99382.63
2019-02-21T06:53:08.435Z,99377.47
2019-02-21T06:55:35.087Z,99380.09
2019-02-21T06:58:09.531Z,99378.80
2019-02-21T07:00:36.622Z,99375.75
2019-02-21T07:03:03.721Z,99382.76
2019-02-21T07:05:30.712Z,99386.67
2019-02-21T07:07:57.620Z,99384.45
2019-02-21T07:10:26.192Z,99383.16
2019-02-21T07:12:53.118Z,99390.60
2019-02-21T07:15:19.959Z,99387.12
2019-02-21T07:17:49.199Z,99391.47
2019-02-21T07:20:15.208Z,99392.34
2019-02-21T07:22:41.741Z,99396.70
2019-02-21T07:25:22.800Z,99389.79
2019-02-21T07:27:49.591Z,99390.23
2019-02-21T07:30:20.169Z,99398.95
2019-02-21T07:32:44.600Z,99403.36
2019-02-21T07:35:11.305Z,99405.59
2019-02-21T07:37:37.849Z,99410.44
2019-02-21T07:40:04.847Z,99416.14
2019-02-21T07:42:33.185Z,99407.92
2019-02-21T07:45:00.949Z,99408.36
2019-02-21T07:47:27.887Z,99410.59
2019-02-21T07:49:55.276Z,99411.55
2019-02-21T07:52:21.838Z,99415.52
2019-02-21T07:55:01.739Z,99418.21
2019-02-21T07:57:36.696Z,99411.27
2019-02-21T08:00:07.295Z,99408.66
2019-02-21T08:02:34.272Z,99417.34
2019-02-21T08:05:02.345Z,99418.65
2019-02-21T08:07:29.020Z,99422.57
2019-02-21T08:09:55.621Z,99423.44
2019-02-21T08:12:23.303Z,99426.06
2019-02-21T08:14:52.259Z,99429.98
2019-02-21T08:17:18.893Z,99433.10
2019-02-21T08:19:45.515Z,99432.23
2019-02-21T08:22:12.733Z,99439.23
2019-02-21T08:24:39.803Z,99434.45
2019-02-21T08:27:06.404Z,99433.97
2019-02-21T08:29:33.595Z,99438.30
2019-02-21T08:32:00.313Z,99436.12
2019-02-21T08:34:48.273Z,99444.87
2019-02-21T08:37:20.485Z,99440.95
2019-02-21T08:39:47.091Z,99434.03
2019-02-21T08:42:13.695Z,99437.16
2019-02-21T08:44:40.592Z,99435.45
2019-02-21T08:47:07.613Z,99437.23
2019-02-21T08:49:34.368Z,99435.95
2019-02-21T08:52:01.799Z,99431.61
2019-02-21T08:54:28.347Z,99431.59
2019-02-21T08:56:54.953Z,99439.03
2019-02-21T08:59:23.076Z,99446.00
2019-02-21T09:01:49.757Z,99442.91
2019-02-21T09:04:26.986Z,99436.78
2019-02-21T09:06:46.080Z,99444.66
2019-02-21T09:09:13.013Z,99445.08
2019-02-21T09:11:39.621Z,99437.22
2019-02-21T09:14:06.268Z,99443.77
2019-02-21T09:16:32.814Z,99440.28
2019-02-21T09:18:59.550Z,99432.87
2019-02-21T09:21:26.296Z,99431.11
2019-02-21T09:23:52.813Z,99432.85
2019-02-21T09:26:21.652Z,99438.55
2019-02-21T09:28:48.224Z,99439.44
2019-02-21T09:31:16.177Z,99431.98
2019-02-21T09:33:43.842Z,99441.16
2019-02-21T09:36:10.987Z,99433.75
2019-02-21T09:38:37.904Z,99435.47
2019-02-21T09:41:04.774Z,99428.48
2019-02-21T09:43:31.624Z,99431.55
2019-02-21T09:45:58.464Z,99433.73
2019-02-21T09:48:26.125Z,99428.06
2019-02-21T09:50:52.718Z,99438.96
2019-02-21T09:53:19.317Z,99441.14
2019-02-21T09:55:46.067Z,99439.42
2019-02-21T09:58:12.962Z,99442.89
2019-02-21T10:00:42.872Z,99433.34
2019-02-21T10:03:12.343Z,99435.08
2019-02-21T10:05:39.804Z,99436.83
2019-02-21T10:08:06.701Z,99436.83
2019-02-21T10:10:33.403Z,99438.56
2019-02-21T10:13:00.208Z,99437.68
2019-02-21T10:15:26.957Z,99442.50
2019-02-21T10:17:55.293Z,99449.92
2019-02-21T10:20:22.104Z,99448.17
2019-02-21T10:22:49.718Z,99459.95
2019-02-21T10:25:18.634Z,99452.96
2019-02-21T10:27:46.488Z,99453.39
2019-02-21T10:30:14.289Z,99452.53
2019-02-21T10:32:40.986Z,99452.08
2019-02-21T10:35:07.919Z,99455.58
2019-02-21T10:37:34.644Z,99455.55
2019-02-21T10:40:03.213Z,99460.37
2019-02-21T10:42:31.026Z,99466.52
2019-02-21T10:44:57.815Z,99464.34
2019-02-21T10:47:24.514Z,99469.16
2019-02-21T10:49:51.137Z,99467.39
2019-02-21T10:52:18.806Z,99469.16
2019-02-21T10:54:45.818Z,99466.55
2019-02-21T10:57:12.519Z,99468.29
2019-02-21T10:59:46.726Z,99473.53
2019-02-21T11:02:09.437Z,99473.97
2019-02-21T11:04:38.374Z,99477.89
2019-02-21T11:07:06.184Z,99472.22
2019-02-21T11:09:33.613Z,99466.10
2019-02-21T11:12:03.508Z,99467.41
2019-02-21T11:14:30.346Z,99463.02
2019-02-21T11:16:56.965Z,99460.42
2019-02-21T11:19:27.948Z,99463.90
2019-02-21T11:21:54.788Z,99459.53
2019-02-21T11:24:22.766Z,99453.41
2019-02-21T11:26:49.404Z,99449.05
2019-02-21T11:29:19.251Z,99448.59
2019-02-21T11:31:46.456Z,99441.14
2019-02-21T11:34:13.835Z,99436.73
2019-02-21T11:36:41.062Z,99434.08
2019-02-21T11:39:07.751Z,99422.68
2019-02-21T11:41:34.666Z,99427.91
2019-02-21T11:44:02.684Z,99419.89
2019-02-21T11:46:30.352Z,99417.95
2019-02-21T11:48:57.573Z,99411.80
2019-02-21T11:51:24.229Z,99405.58
2019-02-21T11:53:52.287Z,99405.11
2019-02-21T11:56:19.375Z,99395.62
2019-02-21T11:58:46.118Z,99388.08
2019-02-21T12:01:16.113Z,99389.71
2019-02-21T12:03:53.262Z,99386.52
2019-02-21T12:06:24.446Z,99379.80
2019-02-21T12:08:55.893Z,99384.86
2019-02-21T12:11:25.527Z,99384.97
2019-02-21T12:13:53.842Z,99384.27
2019-02-21T12:16:25.853Z,99377.19
2019-02-21T12:18:54.354Z,99379.20
2019-02-21T12:21:21.017Z,99373.83
2019-02-21T12:23:47.759Z,99362.23
2019-02-21T12:26:30.078Z,99358.07
2019-02-21T12:29:01.859Z,99357.50
2019-02-21T12:31:33.988Z,99349.26
2019-02-21T12:34:05.088Z,99343.09
2019-02-21T12:36:32.152Z,99339.50
2019-02-21T12:38:58.756Z,99328.36
2019-02-21T12:41:29.814Z,99340.55
2019-02-21T12:44:03.957Z,99333.95
2019-02-21T12:46:36.065Z,99328.93
2019-02-21T12:49:04.247Z,99319.17
2019-02-21T12:51:31.906Z,99317.50
2019-02-21T12:53:58.764Z,99316.22
2019-02-21T12:56:31.214Z,99314.22
2019-02-21T12:59:04.199Z,99316.91
2019-02-21T13:01:34.873Z,99317.89
2019-02-21T13:04:11.332Z,99302.28
2019-02-21T13:06:51.988Z,99320.66
2019-02-21T13:09:26.163Z,99320.48
2019-02-21T13:11:54.979Z,99327.94
2019-02-21T13:14:21.595Z,99326.75
2019-02-21T13:16:49.582Z,99330.40
2019-02-21T13:19:16.447Z,99336.18
2019-02-21T13:21:43.207Z,99347.30
2019-02-21T13:24:10.033Z,99341.95
2019-02-21T13:26:36.673Z,99340.30
2019-02-21T13:29:03.423Z,99348.61
2019-02-21T13:31:30.035Z,99336.28
2019-02-21T13:33:56.664Z,99347.45
2019-02-21T13:36:23.753Z,99346.56
2019-02-21T13:38:50.781Z,99355.35
2019-02-21T13:41:18.110Z,99357.28
2019-02-21T13:43:45.286Z,99360.80
2019-02-21T13:46:11.800Z,99363.51
2019-02-21T13:48:38.688Z,99365.95
2019-02-21T13:51:06.544Z,99365.94
2019-02-21T13:53:33.449Z,99354.34
2019-02-21T13:56:02.154Z,99354.55
2019-02-21T13:58:28.912Z,99357.02
2019-02-21T14:00:55.482Z,99352.77
2019-02-21T14:03:22.032Z,99356.75
2019-02-21T14:05:48.648Z,99357.75
2019-02-21T14:08:17.619Z,99362.22
2019-02-21T14:10:44.458Z,99364.00
2019-02-21T14:13:11.947Z,99358.00
2019-02-21T14:15:38.499Z,99362.39
2019-02-21T14:18:05.137Z,99361.23
2019-02-21T14:20:31.789Z,99359.03
2019-02-21T14:22:58.413Z,99358.19
2019-02-21T14:25:24.954Z,99363.10
2019-02-21T14:27:51.475Z,99362.24
2019-02-21T14:30:18.130Z,99359.66
2019-02-21T14:32:44.882Z,99360.46
2019-02-21T14:35:11.659Z,99359.62
2019-02-21T14:37:38.359Z,99360.46
2019-02-21T14:40:06.427Z,99355.62
2019-02-21T14:42:33.336Z,99360.87
2019-02-21T14:44:59.864Z,99349.43
2019-02-21T14:47:26.689Z,99345.14
2019-02-21T14:49:53.389Z,99354.45
2019-02-21T14:52:20.034Z,99346.20
2019-02-21T14:54:46.722Z,99347.56
2019-02-21T14:57:15.474Z,99345.82
2019-02-21T14:59:44.621Z,99350.66
2019-02-21T15:02:10.759Z,99346.76
2019-02-21T15:04:38.296Z,99348.96
2019-02-21T15:07:06.611Z,99347.69
2019-02-21T15:09:33.627Z,99346.84
2019-02-21T15:12:00.345Z,99339.39
2019-02-21T15:14:27.316Z,99344.66
2019-02-21T15:16:54.126Z,99361.72
2019-02-21T15:19:21.164Z,99353.49
2019-02-21T15:21:48.193Z,99350.43
2019-02-21T15:24:15.116Z,99350.88
2019-02-21T15:26:41.870Z,99353.08
2019-02-21T15:29:08.557Z,99349.59
2019-02-21T15:31:35.129Z,99350.51
2019-02-21T15:34:01.882Z,99359.27
2019-02-21T15:36:37.863Z,99357.98
2019-02-21T15:38:57.191Z,99360.19
2019-02-21T15:41:24.065Z,99361.95
2019-02-21T15:43:50.751Z,99372.86
2019-02-21T15:46:17.615Z,99369.82
2019-02-21T15:48:44.718Z,99367.21
2019-02-21T15:51:11.512Z,99364.12
2019-02-21T15:53:38.174Z,99367.64
2019-02-21T15:56:04.878Z,99369.41
2019-02-21T15:58:31.563Z,99372.47
2019-02-21T16:00:58.602Z,99370.27
2019-02-21T16:03:25.296Z,99365.47
2019-02-21T16:05:51.841Z,99368.13
2019-02-21T16:08:18.970Z,99370.34
2019-02-21T16:10:45.539Z,99362.02
2019-02-21T16:13:12.206Z,99361.53
2019-02-21T16:15:38.780Z,99355.89
2019-02-21T16:18:05.350Z,99372.09
2019-02-21T16:20:31.853Z,99366.84
2019-02-21T16:22:58.406Z,99364.66
2019-02-21T16:25:24.946Z,99362.06
2019-02-21T16:27:51.531Z,99370.84
2019-02-21T16:30:18.081Z,99376.52
2019-02-21T16:32:44.884Z,99380.95
2019-02-21T16:35:11.503Z,99378.30
2019-02-21T16:37:37.990Z,99371.80
2019-02-21T16:40:08.128Z,99379.69
2019-02-21T16:42:34.658Z,99384.97
2019-02-21T16:45:01.420Z,99396.79
2019-02-21T16:47:27.898Z,99395.98
2019-02-21T16:49:54.464Z,99406.48
2019-02-21T16:52:22.185Z,99406.95
2019-02-21T16:54:49.196Z,99406.50
2019-02-21T16:57:15.720Z,99411.34
2019-02-21T16:59:43.427Z,99410.45
2019-02-21T17:02:10.130Z,99421.37
2019-02-21T17:04:36.624Z,99421.86
2019-02-21T17:07:13.313Z,99422.29
2019-02-21T17:09:36.789Z,99427.11
2019-02-21T17:12:03.312Z,99426.25
2019-02-21T17:14:29.839Z,99432.38
2019-02-21T17:16:57.513Z,99433.72
2019-02-21T17:19:24.443Z,99431.97
2019-02-21T17:21:51.038Z,99428.92
2019-02-21T17:24:17.612Z,99431.53
2019-02-21T17:26:45.181Z,99432.39
2019-02-21T17:29:11.690Z,99436.33
2019-02-21T17:31:38.539Z,99439.41
2019-02-21T17:34:05.886Z,99431.53
2019-02-21T17:36:32.836Z,99427.17
2019-02-21T17:39:04.078Z,99429.80
2019-02-21T17:41:30.623Z,99435.92
2019-02-21T17:43:57.369Z,99433.32
2019-02-21T17:46:24.139Z,99437.23
2019-02-21T17:48:50.732Z,99435.49
2019-02-21T17:51:17.244Z,99435.92
2019-02-21T17:53:43.797Z,99442.91
2019-02-21T17:56:10.505Z,99443.34
2019-02-21T17:58:37.208Z,99444.22
2019-02-21T18:01:04.063Z,99440.72
2019-02-21T18:03:30.926Z,99444.22
2019-02-21T18:05:57.710Z,99443.80
2019-02-21T18:08:24.209Z,99438.10
2019-02-21T18:10:51.049Z,99440.71
2019-02-21T18:13:17.567Z,99432.42
2019-02-21T18:15:44.088Z,99433.31
2019-02-21T18:18:10.916Z,99433.33
2019-02-21T18:20:37.407Z,99442.50
2019-02-21T18:23:04.438Z,99438.13
2019-02-21T18:25:36.906Z,99448.61
2019-02-21T18:28:03.590Z,99449.49
2019-02-21T18:30:30.181Z,99448.19
2019-02-21T18:32:56.717Z,99450.36
2019-02-21T18:35:23.213Z,99451.23
2019-02-21T18:37:49.730Z,99448.63
2019-02-21T18:40:18.458Z,99451.25
2019-02-21T18:42:44.786Z,99451.26
2019-02-21T18:45:11.601Z,99453.42
2019-02-21T18:47:38.596Z,99457.78
2019-02-21T18:50:05.248Z,99458.66
2019-02-21T18:52:31.784Z,99461.28
2019-02-21T18:54:58.372Z,99455.61
2019-02-21T18:57:31.745Z,99450.80
2019-02-21T18:59:58.385Z,99454.29
2019-02-21T19:02:28.935Z,99461.30
2019-02-21T19:04:59.590Z,99459.13
2019-02-21T19:07:26.325Z,99453.42
2019-02-21T19:09:53.320Z,99452.98
2019-02-21T19:12:19.905Z,99457.80
2019-02-21T19:14:46.488Z,99459.97
2019-02-21T19:17:13.301Z,99449.95
2019-02-21T19:19:40.077Z,99450.82
2019-02-21T19:22:06.812Z,99454.73
2019-02-21T19:24:44.606Z,99453.00
2019-02-21T19:27:24.654Z,99455.17
2019-02-21T19:36:50.158Z,99451.68
2019-02-21T19:39:50.250Z,99450.81
2019-02-21T19:43:10.294Z,99446.89
2019-02-21T19:45:46.844Z,99448.64
2019-02-21T19:48:19.208Z,99444.68
2019-02-21T19:50:59.565Z,99444.69
2019-02-21T19:53:35.499Z,99446.43
2019-02-21T19:56:08.730Z,99454.29
2019-02-21T19:58:38.819Z,99449.94
2019-02-21T20:01:23.272Z,99452.56
2019-02-21T20:03:53.848Z,99455.17
2019-02-21T20:06:21.678Z,99453.88
2019-02-21T20:08:54.712Z,99459.13
2019-02-21T20:11:22.808Z,99462.59
2019-02-21T20:13:52.323Z,99462.16
2019-02-21T20:16:19.624Z,99470.02
2019-02-21T20:18:46.417Z,99466.09
2019-02-21T20:21:13.318Z,99470.04
2019-02-21T20:23:40.220Z,99470.92
2019-02-21T20:26:17.647Z,99476.14
2019-02-21T20:28:35.467Z,99478.77
2019-02-21T20:31:02.121Z,99473.52
2019-02-21T20:33:29.141Z,99475.28
2019-02-21T20:35:56.044Z,99476.16
2019-02-21T20:38:31.772Z,99473.09
2019-02-21T20:40:52.634Z,99479.64
2019-02-21T20:43:19.377Z,99466.98
2019-02-21T20:45:53.139Z,99475.72
2019-02-21T20:48:17.995Z,99473.95
2019-02-21T20:50:56.432Z,99477.90
2019-02-21T20:53:15.366Z,99478.77
2019-02-21T20:55:44.173Z,99482.70
2019-02-21T20:58:11.831Z,99473.96
2019-02-21T21:00:38.701Z,99477.44
2019-02-21T21:03:05.394Z,99485.31
2019-02-21T21:05:32.039Z,99481.39
2019-02-21T21:08:12.629Z,99484.88
2019-02-21T21:10:39.238Z,99488.38
2019-02-21T21:13:06.007Z,99491.00
2019-02-21T21:15:34.778Z,99483.57
2019-02-21T21:18:01.507Z,99487.52
2019-02-21T21:20:29.018Z,99491.87
2019-02-21T21:22:55.889Z,99490.54
2019-02-21T21:25:22.710Z,99491.00
2019-02-21T21:27:50.703Z,99491.44
2019-02-21T21:30:17.417Z,99486.63
2019-02-21T21:32:46.429Z,99502.80
2019-02-21T21:35:13.094Z,99495.79
2019-02-21T21:37:39.725Z,99502.34
2019-02-21T21:40:08.548Z,99507.59
2019-02-21T21:42:35.043Z,99509.78
2019-02-21T21:45:01.566Z,99510.22
2019-02-21T21:47:30.415Z,99515.02
2019-02-21T21:49:56.878Z,99517.62
2019-02-21T21:52:25.515Z,99518.94
2019-02-21T21:54:52.029Z,99526.38
2019-02-21T21:57:18.940Z,99521.57
2019-02-21T21:59:45.466Z,99517.66
2019-02-21T22:02:12.366Z,99525.95
2019-02-21T22:04:39.005Z,99545.61
2019-02-21T22:07:05.725Z,99539.06
2019-02-21T22:09:34.393Z,99541.25
2019-02-21T22:12:00.957Z,99539.06
2019-02-21T22:14:27.474Z,99538.63
2019-02-21T22:16:56.085Z,99540.38
2019-02-21T22:19:22.584Z,99542.53
2019-02-21T22:21:49.035Z,99535.55
2019-02-21T22:24:15.546Z,99543.86
2019-02-21T22:26:42.039Z,99539.48
2019-02-21T22:29:08.577Z,99543.86
2019-02-21T22:31:35.069Z,99553.91
2019-02-21T22:34:01.589Z,99550.40
2019-02-21T22:36:28.087Z,99550.41
2019-02-21T22:38:54.630Z,99550.84
2019-02-21T22:41:21.088Z,99561.77
2019-02-21T22:43:47.556Z,99558.70
2019-02-21T22:46:14.109Z,99557.38
2019-02-21T22:48:47.196Z,99554.33
2019-02-21T22:51:10.305Z,99562.61
2019-02-21T22:53:36.876Z,99559.13
2019-02-21T22:56:03.342Z,99563.50
2019-02-21T22:58:29.940Z,99559.13
2019-02-21T23:01:23.303Z,99559.56
2019-02-21T23:04:14.601Z,99552.98
2019-02-21T23:07:06.660Z,99557.79
2019-02-21T23:09:34.073Z,99553.86
2019-02-21T23:12:00.994Z,99550.38
2019-02-21T23:14:27.866Z,99557.36
2019-02-21T23:16:54.734Z,99556.49
2019-02-21T23:19:24.122Z,99553.00
2019-02-21T23:21:50.201Z,99551.25
2019-02-21T23:24:16.942Z,99550.38
2019-02-21T23:26:43.529Z,99547.75
2019-02-21T23:29:10.180Z,99549.49
2019-02-21T23:31:36.731Z,99555.61
2019-02-21T23:34:03.949Z,99553.44
2019-02-21T23:36:30.440Z,99548.20
2019-02-21T23:38:57.031Z,99557.78
2019-02-21T23:41:23.574Z,99551.69
2019-02-21T23:43:50.116Z,99559.55
2019-02-21T23:46:16.721Z,99559.96
2019-02-21T23:48:43.197Z,99560.86
2019-02-21T23:51:09.662Z,99555.62
2019-02-21T23:53:36.406Z,99565.66
2019-02-21T23:56:02.946Z,99559.99
2019-02-21T23:58:29.414Z,99566.52
